Погода Грицовскийна неделю

Тульская область, Россия

23 - 29 июля
  • 23июля
    Сегодня
    +12°
    +24°
    Практически безоблачно
    ВремяПогодаТемператураВлажностьДавлениеВетер, м/сВероятность осадков
    00:00Ясно и безоблачно+16°C94 %741 мм0.5 м/с8 %
    03:00Пасмурно, ливень+15°C96 %741 мм0.7 м/с13 %
    06:00Облачно с прояснениями+15°C94 %742 мм1.0 м/с27 %
    09:00Практически безоблачно+19°C76 %742 мм2.0 м/с21 %
    12:00Ясно и безоблачно+20°C55 %742 мм2.0 м/с18 %
    15:00Практически безоблачно+23°C48 %742 мм2.6 м/с14 %
    18:00Ясно и безоблачно+22°C44 %742 мм1.7 м/с5 %
    21:00Практически безоблачно+18°C56 %743 мм0.3 м/с2 %
  • 24июля
    Среда
    +14°
    +25°
    Облачно с прояснениями
    ВремяПогодаТемператураВлажностьДавлениеВетер, м/сВероятность осадков
    00:00Небольшая облачность+14°C75 %742 мм0.1 м/с2 %
    03:00Ясно и безоблачно+13°C77 %742 мм0.0 м/с2 %
    06:00Ясно и безоблачно+13°C79 %742 мм0.8 м/с2 %
    09:00Ясно и безоблачно+20°C57 %743 мм1.4 м/с2 %
    12:00Пасмурно, сплошная облачность+23°C41 %742 мм2.1 м/с2 %
    15:00Облачно с прояснениями+24°C44 %742 мм2.0 м/с5 %
    18:00Практически безоблачно+24°C48 %741 мм1.3 м/с7 %
    21:00Практически безоблачно+19°C63 %740 мм0.4 м/с1 %
  • 25июля
    Четверг
    +13°
    +25°
    Практически безоблачно
    ВремяПогодаТемператураВлажностьДавлениеВетер, м/сВероятность осадков
    00:00Ясно и безоблачно+17°C68 %740 мм0.6 м/с2 %
    03:00Небольшая облачность+15°C75 %740 мм0.3 м/с2 %
    06:00Ясно и безоблачно+15°C80 %739 мм0.9 м/с1 %
    09:00Практически безоблачно+21°C70 %739 мм1.4 м/с5 %
    12:00Ясно и безоблачно+23°C58 %739 мм1.7 м/с26 %
    15:00Практически безоблачно+24°C51 %739 мм1.8 м/с30 %
    18:00Облачно с прояснениями+22°C53 %739 мм1.4 м/с35 %
    21:00Облачно с прояснениями+18°C76 %739 мм0.0 м/с3 %
  • 26июля
    Пятница
    +12°
    +24°
    Облачно с прояснениями
    ВремяПогодаТемператураВлажностьДавлениеВетер, м/сВероятность осадков
    00:00Практически безоблачно+15°C88 %739 мм0.1 м/с2 %
    03:00Практически безоблачно+14°C90 %740 мм0.0 м/с3 %
    06:00Практически безоблачно+14°C88 %740 мм0.6 м/с5 %
    09:00Практически безоблачно+20°C60 %741 мм1.1 м/с2 %
    12:00Практически безоблачно+22°C45 %742 мм1.2 м/с18 %
    15:00Облачно с прояснениями+24°C39 %742 мм1.6 м/с14 %
    18:00Практически безоблачно+23°C40 %742 мм1.3 м/с6 %
    21:00Ясно и безоблачно+17°C63 %743 мм0.4 м/с2 %
  • 27июля
    Суббота
    +15°
    +26°
    Облачно с прояснениями
    ВремяПогодаТемператураВлажностьДавлениеВетер, м/сВероятность осадков
    00:00Ясно и безоблачно+16°C72 %744 мм0.0 м/с2 %
    03:00Ясно и безоблачно+13°C83 %744 мм0.0 м/с2 %
    06:00Практически безоблачно+13°C77 %744 мм0.4 м/с2 %
    09:00Ясно и безоблачно+22°C52 %745 мм0.7 м/с3 %
    12:00Пасмурно, сплошная облачность+25°C38 %745 мм1.5 м/с7 %
    15:00Облачно с прояснениями+26°C36 %745 мм2.0 м/с8 %
    18:00Небольшая облачность+25°C40 %745 мм1.7 м/с13 %
    21:00Ясно и безоблачно+20°C54 %745 мм0.7 м/с5 %
Мы используем cookies
Соглашаюсь